createdAt,value
2022-08-24T00:01:25.125Z,97902.91
2022-08-24T00:04:28.437Z,97904.72
2022-08-24T00:07:35.420Z,97906.75
2022-08-24T00:10:40.622Z,97909.41
2022-08-24T00:13:44.541Z,97912.88
2022-08-24T00:16:47.477Z,97906.34
2022-08-24T00:19:51.340Z,97910.81
2022-08-24T00:22:54.306Z,97907.16
2022-08-24T00:25:59.028Z,97910.03
2022-08-24T00:29:05.514Z,97906.94
2022-08-24T00:32:10.361Z,97905.06
2022-08-24T00:35:14.852Z,97904.06
2022-08-24T00:38:18.060Z,97911.22
2022-08-24T00:41:22.567Z,97906.53
2022-08-24T00:44:26.312Z,97909.59
2022-08-24T00:47:35.987Z,97913.88
2022-08-24T00:50:42.437Z,97908.34
2022-08-24T00:53:49.081Z,97912.00
2022-08-24T00:57:05.364Z,97908.09
2022-08-24T01:00:13.231Z,97909.94
2022-08-24T01:03:16.239Z,97916.47
2022-08-24T01:06:19.822Z,97914.66
2022-08-24T01:09:22.977Z,97907.50
2022-08-24T01:12:29.239Z,97908.31
2022-08-24T01:15:35.495Z,97919.38
2022-08-24T01:18:50.941Z,97908.31
2022-08-24T01:22:05.359Z,97901.38
2022-08-24T01:25:10.490Z,97907.09
2022-08-24T01:28:23.407Z,97899.94
2022-08-24T01:31:31.816Z,97912.00
2022-08-24T01:34:35.265Z,97911.78
2022-08-24T01:37:38.643Z,97911.16
2022-08-24T01:40:58.011Z,97906.63
2022-08-24T01:44:08.261Z,97912.75
2022-08-24T01:47:13.605Z,97908.88
2022-08-24T01:50:17.251Z,97908.03
2022-08-24T01:53:20.862Z,97908.47
2022-08-24T01:56:25.093Z,97909.31
2022-08-24T01:59:28.475Z,97917.66
2022-08-24T02:02:33.285Z,97919.72
2022-08-24T02:05:36.517Z,97917.25
2022-08-24T02:08:39.430Z,97912.16
2022-08-24T02:11:44.366Z,97915.41
2022-08-24T02:14:49.074Z,97911.91
2022-08-24T02:17:52.341Z,97919.66
2022-08-24T02:20:55.227Z,97923.72
2022-08-24T02:23:58.179Z,97921.72
2022-08-24T02:27:02.594Z,97922.53
2022-08-24T02:30:06.351Z,97921.31
2022-08-24T02:33:09.783Z,97916.69
2022-08-24T02:36:26.291Z,97926.16
2022-08-24T02:39:32.336Z,97921.00
2022-08-24T02:42:40.539Z,97926.44
2022-08-24T02:45:50.338Z,97923.81
2022-08-24T02:49:10.904Z,97925.63
2022-08-24T02:52:15.185Z,97928.50
2022-08-24T02:55:20.563Z,97930.28
2022-08-24T02:58:27.871Z,97933.59
2022-08-24T03:01:30.878Z,97921.66
2022-08-24T03:04:34.474Z,97927.97
2022-08-24T03:07:39.138Z,97931.22
2022-08-24T03:10:41.916Z,97940.28
2022-08-24T03:13:46.153Z,97932.34
2022-08-24T03:16:48.969Z,97935.81
2022-08-24T03:19:53.829Z,97923.53
2022-08-24T03:22:56.630Z,97929.13
2022-08-24T03:25:59.617Z,97930.00
2022-08-24T03:29:04.054Z,97929.75
2022-08-24T03:32:08.822Z,97917.69
2022-08-24T03:35:13.939Z,97925.41
2022-08-24T03:38:17.070Z,97922.53
2022-08-24T03:41:20.454Z,97920.00
2022-08-24T03:44:26.258Z,97924.50
2022-08-24T03:47:30.363Z,97909.22
2022-08-24T03:50:33.213Z,97922.88
2022-08-24T03:53:36.861Z,97920.41
2022-08-24T03:56:45.736Z,97927.16
2022-08-24T03:59:50.462Z,97928.63
2022-08-24T04:02:53.246Z,97931.88
2022-08-24T04:05:58.450Z,97937.00
2022-08-24T04:09:04.936Z,97933.09
2022-08-24T04:12:11.282Z,97942.44
2022-08-24T04:15:15.641Z,97939.97
2022-08-24T04:18:18.409Z,97942.88
2022-08-24T04:21:23.021Z,97938.78
2022-08-24T04:24:27.138Z,97948.66
2022-08-24T04:27:29.952Z,97938.09
2022-08-24T04:30:34.111Z,97948.84
2022-08-24T04:33:42.929Z,97955.94
2022-08-24T04:36:49.823Z,97967.31
2022-08-24T04:39:53.188Z,97960.81
2022-08-24T04:43:03.461Z,97964.50
2022-08-24T04:46:09.931Z,97967.38
2022-08-24T04:49:12.749Z,97969.94
2022-08-24T04:52:16.017Z,97970.59
2022-08-24T04:55:19.797Z,97969.34
2022-08-24T04:58:22.583Z,97979.19
2022-08-24T05:01:34.514Z,97977.16
2022-08-24T05:04:39.729Z,97989.16
2022-08-24T05:07:45.009Z,97981.66
2022-08-24T05:10:50.569Z,97980.44
2022-08-24T05:13:53.874Z,97987.00
2022-08-24T05:16:58.097Z,97998.47
2022-08-24T05:20:01.022Z,97993.19
2022-08-24T05:23:04.700Z,97997.25
2022-08-24T05:26:12.385Z,98000.13
2022-08-24T05:29:15.486Z,98002.16
2022-08-24T05:32:24.809Z,97996.69
2022-08-24T05:35:29.332Z,97996.53
2022-08-24T05:38:34.399Z,98005.50
2022-08-24T05:41:37.354Z,98012.41
2022-08-24T05:44:47.097Z,98014.09
2022-08-24T05:47:54.365Z,98012.50
2022-08-24T05:51:16.227Z,98023.38
2022-08-24T05:54:28.905Z,98031.31
2022-08-24T05:57:38.245Z,98029.69
2022-08-24T06:00:52.165Z,98036.66
2022-08-24T06:03:57.912Z,98024.84
2022-08-24T06:07:01.180Z,98027.53
2022-08-24T06:10:32.836Z,98034.69
2022-08-24T06:13:28.394Z,98040.41
2022-08-24T06:16:31.586Z,98036.19
2022-08-24T06:19:36.597Z,98040.91
2022-08-24T06:22:39.561Z,98040.78
2022-08-24T06:25:59.954Z,98039.13
2022-08-24T06:29:03.437Z,98045.53
2022-08-24T06:32:07.938Z,98037.38
2022-08-24T06:35:12.165Z,98045.13
2022-08-24T06:38:15.060Z,98041.69
2022-08-24T06:41:21.764Z,98040.31
2022-08-24T06:44:24.686Z,98040.72
2022-08-24T06:47:36.362Z,98038.69
2022-08-24T06:50:41.452Z,98045.09
2022-08-24T06:53:45.322Z,98050.22
2022-08-24T06:56:48.193Z,98061.28
2022-08-24T06:59:51.089Z,98055.41
2022-08-24T07:02:55.185Z,98062.19
2022-08-24T07:05:59.699Z,98063.66
2022-08-24T07:09:12.208Z,98059.38
2022-08-24T07:12:15.127Z,98057.56
2022-08-24T07:15:19.285Z,98059.81
2022-08-24T07:18:31.703Z,98065.53
2022-08-24T07:21:35.986Z,98066.38
2022-08-24T07:24:40.849Z,98072.13
2022-08-24T07:27:44.902Z,98062.72
2022-08-24T07:30:47.937Z,98063.94
2022-08-24T07:33:51.584Z,98055.53
2022-08-24T07:36:55.899Z,98057.41
2022-08-24T07:39:59.144Z,98046.75
2022-08-24T07:43:02.293Z,98039.75
2022-08-24T07:46:06.531Z,98033.59
2022-08-24T07:49:21.420Z,98033.22
2022-08-24T07:52:35.675Z,98036.44
2022-08-24T07:55:45.881Z,98028.66
2022-08-24T07:58:49.383Z,98042.53
2022-08-24T08:01:57.837Z,98031.88
2022-08-24T08:05:01.069Z,98035.94
2022-08-24T08:08:07.039Z,98031.81
2022-08-24T08:11:11.667Z,98016.16
2022-08-24T08:14:16.289Z,98012.19
2022-08-24T08:17:19.098Z,98009.53
2022-08-24T08:20:22.034Z,98014.66
2022-08-24T08:23:43.717Z,98004.16
2022-08-24T08:26:57.724Z,98001.63
2022-08-24T08:30:07.624Z,97999.94
2022-08-24T08:33:12.271Z,97991.56
2022-08-24T08:36:16.143Z,97987.41
2022-08-24T08:39:26.133Z,97984.94
2022-08-24T08:42:54.566Z,97976.88
2022-08-24T08:46:16.753Z,97980.50
2022-08-24T08:50:00.483Z,97965.13
2022-08-24T08:53:34.212Z,97959.00
2022-08-24T08:56:50.572Z,97955.66
2022-08-24T09:00:10.227Z,97952.75
2022-08-24T09:03:40.122Z,97946.72
2022-08-24T09:07:19.486Z,97938.63
2022-08-24T09:10:45.660Z,97938.78
2022-08-24T09:14:05.422Z,97914.50
2022-08-24T09:17:33.093Z,97912.53
2022-08-24T09:21:03.312Z,97894.53
2022-08-24T09:24:25.741Z,97894.44
2022-08-24T09:27:50.369Z,97893.28
2022-08-24T09:31:11.746Z,97888.16
2022-08-24T09:34:23.851Z,97888.16
2022-08-24T09:37:33.806Z,97881.53
2022-08-24T09:40:53.011Z,97874.41
2022-08-24T09:44:14.593Z,97878.50
2022-08-24T09:47:46.248Z,97872.88
2022-08-24T09:51:24.683Z,97874.41
2022-08-24T09:54:48.686Z,97858.28
2022-08-24T09:58:11.351Z,97857.25
2022-08-24T10:01:24.076Z,97859.34
2022-08-24T10:04:35.601Z,97859.34
2022-08-24T10:07:50.514Z,97860.81
2022-08-24T10:10:59.641Z,97859.63
2022-08-24T10:14:10.657Z,97857.84
2022-08-24T10:17:21.698Z,97861.00
2022-08-24T10:20:30.481Z,97846.19
2022-08-24T10:23:46.117Z,97839.41
2022-08-24T10:27:18.644Z,97846.78
2022-08-24T10:30:41.149Z,97847.25
2022-08-24T10:33:56.794Z,97829.22
2022-08-24T10:37:25.720Z,97833.38
2022-08-24T10:40:40.135Z,97831.16
2022-08-24T10:44:05.958Z,97827.44
2022-08-24T10:47:19.894Z,97834.31
2022-08-24T10:51:05.491Z,97833.41
2022-08-24T10:54:12.754Z,97829.13
2022-08-24T10:57:26.169Z,97834.81
2022-08-24T11:00:30.830Z,97840.16
2022-08-24T11:03:34.770Z,97835.38
2022-08-24T11:06:39.858Z,97835.84
2022-08-24T11:09:51.752Z,97835.56
2022-08-24T11:12:55.311Z,97833.94
2022-08-24T11:16:01.568Z,97837.28
2022-08-24T11:19:09.629Z,97833.47
2022-08-24T11:22:30.253Z,97832.59
2022-08-24T11:25:37.935Z,97837.56
2022-08-24T11:28:47.940Z,97840.38
2022-08-24T11:31:52.807Z,97833.31
2022-08-24T11:34:56.144Z,97837.13
2022-08-24T11:38:10.185Z,97831.81
2022-08-24T11:41:20.453Z,97832.06
2022-08-24T11:44:38.332Z,97838.47
2022-08-24T11:48:01.505Z,97829.28
2022-08-24T11:51:13.530Z,97832.06
2022-08-24T11:54:25.999Z,97827.78
2022-08-24T11:57:47.411Z,97831.97
2022-08-24T12:00:57.030Z,97836.13
2022-08-24T12:04:10.660Z,97833.09
2022-08-24T12:07:23.560Z,97831.31
2022-08-24T12:10:37.126Z,97835.00
2022-08-24T12:13:54.073Z,97831.34
2022-08-24T12:17:03.381Z,97821.41
2022-08-24T12:20:18.959Z,97817.34
2022-08-24T12:23:27.210Z,97819.28
2022-08-24T12:26:34.347Z,97819.91
2022-08-24T12:29:45.506Z,97824.78
2022-08-24T12:32:53.787Z,97813.50
2022-08-24T12:36:02.463Z,97811.00
2022-08-24T12:39:11.794Z,97815.75
2022-08-24T12:42:19.890Z,97820.41
2022-08-24T12:45:25.993Z,97829.28
2022-08-24T12:48:35.505Z,97817.41
2022-08-24T12:51:57.787Z,97810.38
2022-08-24T12:55:20.956Z,97823.91
2022-08-24T12:58:54.731Z,97820.63
2022-08-24T13:02:03.922Z,97809.16
2022-08-24T13:05:14.279Z,97818.84
2022-08-24T13:08:24.211Z,97811.09
2022-08-24T13:11:32.215Z,97812.72
2022-08-24T13:14:35.848Z,97807.25
2022-08-24T13:17:43.432Z,97818.00
2022-08-24T13:20:56.874Z,97817.56
2022-08-24T13:24:33.212Z,97820.56
2022-08-24T13:28:06.957Z,97821.91
2022-08-24T13:31:20.690Z,97817.00
2022-08-24T13:34:44.512Z,97814.84
2022-08-24T13:38:32.449Z,97814.13
2022-08-24T13:41:50.219Z,97809.34
2022-08-24T13:45:15.711Z,97805.25
2022-08-24T13:48:29.714Z,97813.03
2022-08-24T13:51:43.221Z,97806.59
2022-08-24T13:55:04.255Z,97807.09
2022-08-24T13:58:19.558Z,97801.75
2022-08-24T14:01:31.204Z,97797.97
2022-08-24T14:04:47.544Z,97801.28
2022-08-24T14:07:58.394Z,97809.53
2022-08-24T14:11:10.957Z,97802.44
2022-08-24T14:14:22.686Z,97807.25
2022-08-24T14:17:55.788Z,97801.78
2022-08-24T14:21:09.788Z,97803.44
2022-08-24T14:24:28.086Z,97800.34
2022-08-24T14:27:39.288Z,97796.66
2022-08-24T14:30:50.454Z,97795.28
2022-08-24T14:34:14.318Z,97792.13
2022-08-24T14:37:24.041Z,97789.81
2022-08-24T14:40:35.706Z,97784.97
2022-08-24T14:44:07.094Z,97784.50
2022-08-24T14:47:20.311Z,97788.75
2022-08-24T14:50:28.576Z,97779.03
2022-08-24T14:53:51.137Z,97782.88
2022-08-24T14:57:09.824Z,97783.88
2022-08-24T15:00:16.887Z,97780.09
2022-08-24T15:03:42.828Z,97784.34
2022-08-24T15:06:49.797Z,97784.34
2022-08-24T15:09:53.958Z,97769.56
2022-08-24T15:13:03.900Z,97777.66
2022-08-24T15:16:13.139Z,97772.94
2022-08-24T15:19:27.268Z,97770.50
2022-08-24T15:22:41.025Z,97766.81
2022-08-24T15:25:53.952Z,97773.03
2022-08-24T15:29:12.732Z,97769.03
2022-08-24T15:32:15.953Z,97758.91
2022-08-24T15:35:31.927Z,97771.19
2022-08-24T15:38:37.065Z,97759.94
2022-08-24T15:41:43.061Z,97761.88
2022-08-24T15:44:50.095Z,97758.88
2022-08-24T15:47:54.618Z,97756.75
2022-08-24T15:50:57.502Z,97753.00
2022-08-24T15:54:26.799Z,97760.56
2022-08-24T15:57:32.660Z,97761.59
2022-08-24T16:00:56.072Z,97746.94
2022-08-24T16:04:01.918Z,97750.84
2022-08-24T16:07:05.330Z,97755.94
2022-08-24T16:10:12.004Z,97749.94
2022-08-24T16:13:25.125Z,97740.97
2022-08-24T16:16:40.918Z,97743.19
2022-08-24T16:19:51.363Z,97735.88
2022-08-24T16:23:00.397Z,97738.03
2022-08-24T16:26:22.503Z,97747.16
2022-08-24T16:29:46.202Z,97742.88
2022-08-24T16:32:55.829Z,97750.81
2022-08-24T16:35:59.103Z,97747.59
2022-08-24T16:39:01.846Z,97750.19
2022-08-24T16:42:08.023Z,97741.91
2022-08-24T16:45:14.962Z,97741.91
2022-08-24T16:48:20.562Z,97748.56
2022-08-24T16:51:26.919Z,97745.09
2022-08-24T16:54:30.966Z,97744.59
2022-08-24T16:57:36.409Z,97743.97
2022-08-24T17:00:42.509Z,97748.34
2022-08-24T17:03:48.997Z,97739.97
2022-08-24T17:06:52.108Z,97742.19
2022-08-24T17:09:56.274Z,97741.28
2022-08-24T17:12:59.389Z,97733.50
2022-08-24T17:16:03.305Z,97738.84
2022-08-24T17:19:12.085Z,97733.81
2022-08-24T17:22:16.533Z,97733.81
2022-08-24T17:25:19.677Z,97740.56
2022-08-24T17:28:22.598Z,97733.53
2022-08-24T17:31:25.957Z,97734.69
2022-08-24T17:34:30.171Z,97733.53
2022-08-24T17:37:33.555Z,97733.91
2022-08-24T17:40:36.926Z,97730.44
2022-08-24T17:43:39.882Z,97736.97
2022-08-24T17:46:43.177Z,97732.63
2022-08-24T17:49:47.336Z,97729.03
2022-08-24T17:52:50.413Z,97722.97
2022-08-24T17:56:01.999Z,97724.66
2022-08-24T17:59:23.693Z,97721.09
2022-08-24T18:02:26.749Z,97726.06
2022-08-24T18:05:32.923Z,97737.84
2022-08-24T18:08:36.954Z,97732.72
2022-08-24T18:11:39.834Z,97736.69
2022-08-24T18:14:43.048Z,97745.25
2022-08-24T18:17:51.551Z,97736.47
2022-08-24T18:20:55.774Z,97738.47
2022-08-24T18:24:01.411Z,97747.16
2022-08-24T18:27:10.140Z,97752.72
2022-08-24T18:30:19.752Z,97755.81
2022-08-24T18:33:25.790Z,97746.13
2022-08-24T18:36:30.646Z,97756.63
2022-08-24T18:39:34.068Z,97753.72
2022-08-24T18:42:38.293Z,97761.75
2022-08-24T18:45:41.383Z,97754.94
2022-08-24T18:48:44.309Z,97755.16
2022-08-24T18:51:49.434Z,97757.06
2022-08-24T18:54:52.546Z,97759.72
2022-08-24T18:57:55.678Z,97764.13
2022-08-24T19:00:58.802Z,97772.84
2022-08-24T19:04:09.488Z,97773.25
2022-08-24T19:07:16.949Z,97769.03
2022-08-24T19:10:24.454Z,97764.25
2022-08-24T19:13:27.429Z,97769.75
2022-08-24T19:16:30.792Z,97768.34
2022-08-24T19:19:33.932Z,97772.53
2022-08-24T19:22:39.426Z,97771.13
2022-08-24T19:25:45.376Z,97772.75
2022-08-24T19:28:48.206Z,97776.47
2022-08-24T19:31:52.637Z,97770.25
2022-08-24T19:34:56.778Z,97769.31
2022-08-24T19:38:01.163Z,97766.41
2022-08-24T19:41:11.837Z,97760.94
2022-08-24T19:44:35.859Z,97767.13
2022-08-24T19:47:40.763Z,97763.03
2022-08-24T19:50:44.075Z,97766.41
2022-08-24T19:53:48.188Z,97768.72
2022-08-24T19:56:54.286Z,97771.38
2022-08-24T19:59:59.724Z,97767.91
2022-08-24T20:03:04.708Z,97771.34
2022-08-24T20:06:08.105Z,97770.66
2022-08-24T20:09:13.370Z,97780.66
2022-08-24T20:12:16.493Z,97780.13
2022-08-24T20:15:20.383Z,97780.34
2022-08-24T20:18:30.382Z,97782.78
2022-08-24T20:21:33.514Z,97789.44
2022-08-24T20:24:37.965Z,97799.09
2022-08-24T20:27:40.927Z,97805.56
2022-08-24T20:30:44.550Z,97810.59
2022-08-24T20:33:47.380Z,97811.22
2022-08-24T20:36:51.693Z,97813.91
2022-08-24T20:39:57.532Z,97808.31
2022-08-24T20:43:01.006Z,97810.97
2022-08-24T20:46:06.382Z,97811.56
2022-08-24T20:49:12.331Z,97815.28
2022-08-24T20:52:19.224Z,97821.00
2022-08-24T20:55:23.362Z,97819.00
2022-08-24T20:58:26.613Z,97815.69
2022-08-24T21:01:29.897Z,97827.50
2022-08-24T21:04:33.082Z,97814.97
2022-08-24T21:07:35.953Z,97818.53
2022-08-24T21:10:40.436Z,97810.97
2022-08-24T21:13:46.682Z,97813.50
2022-08-24T21:16:50.599Z,97819.44
2022-08-24T21:19:56.492Z,97834.53
2022-08-24T21:22:59.357Z,97835.25
2022-08-24T21:26:06.029Z,97846.25
2022-08-24T21:29:11.192Z,97851.41
2022-08-24T21:32:31.393Z,97861.97
2022-08-24T21:35:35.980Z,97871.16
2022-08-24T21:38:39.587Z,97883.09
2022-08-24T21:41:49.543Z,97885.50
2022-08-24T21:44:52.361Z,97896.19
2022-08-24T21:47:55.689Z,97892.78
2022-08-24T21:50:58.566Z,97889.19
2022-08-24T21:54:01.409Z,97888.31
2022-08-24T21:57:07.280Z,97908.38
2022-08-24T22:00:14.990Z,97916.06
2022-08-24T22:03:18.056Z,97919.13
2022-08-24T22:06:20.900Z,97915.81
2022-08-24T22:09:23.715Z,97907.81
2022-08-24T22:12:27.844Z,97909.06
2022-08-24T22:15:31.501Z,97919.78
2022-08-24T22:18:35.421Z,97917.94
2022-08-24T22:21:45.891Z,97928.41
2022-08-24T22:24:50.573Z,97932.31
2022-08-24T22:27:54.698Z,97936.66
2022-08-24T22:30:57.500Z,97940.34
2022-08-24T22:34:03.042Z,97935.03
2022-08-24T22:37:06.454Z,97930.22
2022-08-24T22:40:12.718Z,97934.31
2022-08-24T22:43:17.096Z,97930.38
2022-08-24T22:46:20.194Z,97937.72
2022-08-24T22:49:27.858Z,97937.09
2022-08-24T22:52:30.605Z,97945.00
2022-08-24T22:55:33.460Z,97934.19
2022-08-24T22:58:37.587Z,97928.25
2022-08-24T23:01:43.660Z,97921.94
2022-08-24T23:04:48.499Z,97920.31
2022-08-24T23:07:51.298Z,97920.19
2022-08-24T23:10:55.450Z,97928.81
2022-08-24T23:14:03.382Z,97933.19
2022-08-24T23:17:06.554Z,97933.59
2022-08-24T23:20:10.389Z,97938.56
2022-08-24T23:23:13.166Z,97939.81
2022-08-24T23:26:18.153Z,97936.94
2022-08-24T23:29:22.869Z,97938.13
2022-08-24T23:32:26.618Z,97936.06
2022-08-24T23:35:29.534Z,97933.66
2022-08-24T23:38:32.664Z,97927.31
2022-08-24T23:41:39.354Z,97932.44
2022-08-24T23:44:46.902Z,97934.09
2022-08-24T23:47:50.380Z,97936.34
2022-08-24T23:50:53.205Z,97941.44
2022-08-24T23:53:57.047Z,97935.13
2022-08-24T23:57:00.578Z,97941.72
